sensor_id;sensor_type;location;lat;lon;timestamp;temperature;humidity
5130;DHT22;2583;50.946;6.954;2022-09-09T00:02:14;19.10;99.90
5130;DHT22;2583;50.946;6.954;2022-09-09T00:07:30;19.00;99.90
5130;DHT22;2583;50.946;6.954;2022-09-09T00:12:50;18.90;99.90
5130;DHT22;2583;50.946;6.954;2022-09-09T00:15:36;18.90;99.90
5130;DHT22;2583;50.946;6.954;2022-09-09T00:21:06;18.80;99.90
5130;DHT22;2583;50.946;6.954;2022-09-09T00:23:39;18.80;99.90
5130;DHT22;2583;50.946;6.954;2022-09-09T00:26:09;18.90;99.90
5130;DHT22;2583;50.946;6.954;2022-09-09T00:31:20;18.80;99.90
5130;DHT22;2583;50.946;6.954;2022-09-09T00:33:49;18.80;99.90
5130;DHT22;2583;50.946;6.954;2022-09-09T00:36:19;18.80;99.90
5130;DHT22;2583;50.946;6.954;2022-09-09T00:38:53;18.80;99.90
5130;DHT22;2583;50.946;6.954;2022-09-09T00:44:32;18.80;99.90
5130;DHT22;2583;50.946;6.954;2022-09-09T00:50:00;18.80;99.90
5130;DHT22;2583;50.946;6.954;2022-09-09T00:52:46;18.80;99.90
5130;DHT22;2583;50.946;6.954;2022-09-09T00:55:25;18.70;99.90
5130;DHT22;2583;50.946;6.954;2022-09-09T00:57:54;18.70;99.90
5130;DHT22;2583;50.946;6.954;2022-09-09T01:00:46;18.80;99.90
5130;DHT22;2583;50.946;6.954;2022-09-09T01:03:33;18.70;99.90
5130;DHT22;2583;50.946;6.954;2022-09-09T01:06:14;18.60;99.90
5130;DHT22;2583;50.946;6.954;2022-09-09T01:14:29;18.60;99.90
5130;DHT22;2583;50.946;6.954;2022-09-09T01:22:33;18.60;99.90
5130;DHT22;2583;50.946;6.954;2022-09-09T01:27:42;18.50;99.90
5130;DHT22;2583;50.946;6.954;2022-09-09T01:30:14;18.50;99.90
5130;DHT22;2583;50.946;6.954;2022-09-09T01:32:48;18.40;99.90
5130;DHT22;2583;50.946;6.954;2022-09-09T01:37:58;18.40;99.90
5130;DHT22;2583;50.946;6.954;2022-09-09T01:40:25;18.30;99.90
5130;DHT22;2583;50.946;6.954;2022-09-09T01:42:52;18.30;99.90
5130;DHT22;2583;50.946;6.954;2022-09-09T01:45:19;18.30;99.90
5130;DHT22;2583;50.946;6.954;2022-09-09T01:47:48;18.30;99.90
5130;DHT22;2583;50.946;6.954;2022-09-09T01:50:16;18.30;99.90
5130;DHT22;2583;50.946;6.954;2022-09-09T01:52:45;18.30;99.90
5130;DHT22;2583;50.946;6.954;2022-09-09T01:55:13;18.30;99.90
5130;DHT22;2583;50.946;6.954;2022-09-09T02:00:15;18.30;99.90
5130;DHT22;2583;50.946;6.954;2022-09-09T02:05:38;18.30;99.90
5130;DHT22;2583;50.946;6.954;2022-09-09T02:08:09;18.30;99.90
5130;DHT22;2583;50.946;6.954;2022-09-09T02:13:17;18.30;99.90
5130;DHT22;2583;50.946;6.954;2022-09-09T02:16:18;18.30;99.90
5130;DHT22;2583;50.946;6.954;2022-09-09T02:19:01;18.30;99.90
5130;DHT22;2583;50.946;6.954;2022-09-09T02:21:30;18.40;99.90
5130;DHT22;2583;50.946;6.954;2022-09-09T02:23:59;18.30;99.90
5130;DHT22;2583;50.946;6.954;2022-09-09T02:26:27;18.30;99.90
5130;DHT22;2583;50.946;6.954;2022-09-09T02:28:55;18.40;99.90
5130;DHT22;2583;50.946;6.954;2022-09-09T02:31:25;18.40;99.90
5130;DHT22;2583;50.946;6.954;2022-09-09T02:33:55;18.40;99.90
5130;DHT22;2583;50.946;6.954;2022-09-09T02:36:25;18.40;99.90
5130;DHT22;2583;50.946;6.954;2022-09-09T02:38:53;18.40;99.90
5130;DHT22;2583;50.946;6.954;2022-09-09T02:41:25;18.40;99.90
5130;DHT22;2583;50.946;6.954;2022-09-09T02:43:52;18.30;99.90
5130;DHT22;2583;50.946;6.954;2022-09-09T02:46:58;18.30;99.90
5130;DHT22;2583;50.946;6.954;2022-09-09T02:52:45;18.30;99.90
5130;DHT22;2583;50.946;6.954;2022-09-09T02:57:48;18.30;99.90
5130;DHT22;2583;50.946;6.954;2022-09-09T03:00:21;18.30;99.90
5130;DHT22;2583;50.946;6.954;2022-09-09T03:02:48;18.30;99.90
5130;DHT22;2583;50.946;6.954;2022-09-09T03:05:15;18.40;99.90
5130;DHT22;2583;50.946;6.954;2022-09-09T03:07:42;18.30;99.90
5130;DHT22;2583;50.946;6.954;2022-09-09T03:10:09;18.40;99.90
5130;DHT22;2583;50.946;6.954;2022-09-09T03:12:37;18.40;99.90
5130;DHT22;2583;50.946;6.954;2022-09-09T03:15:04;18.40;99.90
5130;DHT22;2583;50.946;6.954;2022-09-09T03:17:31;18.40;99.90
5130;DHT22;2583;50.946;6.954;2022-09-09T03:19:58;18.40;99.90
5130;DHT22;2583;50.946;6.954;2022-09-09T03:22:25;18.40;99.90
5130;DHT22;2583;50.946;6.954;2022-09-09T03:24:52;18.40;99.90
5130;DHT22;2583;50.946;6.954;2022-09-09T03:27:19;18.40;99.90
5130;DHT22;2583;50.946;6.954;2022-09-09T03:29:46;18.40;99.90
5130;DHT22;2583;50.946;6.954;2022-09-09T03:32:13;18.40;99.90
5130;DHT22;2583;50.946;6.954;2022-09-09T03:34:43;18.50;99.90
5130;DHT22;2583;50.946;6.954;2022-09-09T03:37:10;18.50;99.90
5130;DHT22;2583;50.946;6.954;2022-09-09T03:39:37;18.50;99.90
5130;DHT22;2583;50.946;6.954;2022-09-09T03:42:04;18.50;99.90
5130;DHT22;2583;50.946;6.954;2022-09-09T03:44:32;18.50;99.90
5130;DHT22;2583;50.946;6.954;2022-09-09T03:46:58;18.50;99.90
5130;DHT22;2583;50.946;6.954;2022-09-09T03:49:28;18.50;99.90
5130;DHT22;2583;50.946;6.954;2022-09-09T03:51:56;18.50;99.90
5130;DHT22;2583;50.946;6.954;2022-09-09T03:54:24;18.40;99.90
5130;DHT22;2583;50.946;6.954;2022-09-09T03:56:51;18.40;99.90
5130;DHT22;2583;50.946;6.954;2022-09-09T03:59:18;18.50;99.90
5130;DHT22;2583;50.946;6.954;2022-09-09T04:01:44;18.50;99.90
5130;DHT22;2583;50.946;6.954;2022-09-09T04:04:12;18.50;99.90
5130;DHT22;2583;50.946;6.954;2022-09-09T04:06:39;18.40;99.90
5130;DHT22;2583;50.946;6.954;2022-09-09T04:09:06;18.40;99.90
5130;DHT22;2583;50.946;6.954;2022-09-09T04:11:32;18.50;99.90
5130;DHT22;2583;50.946;6.954;2022-09-09T04:13:59;18.50;99.90
5130;DHT22;2583;50.946;6.954;2022-09-09T04:16:27;18.40;99.90
5130;DHT22;2583;50.946;6.954;2022-09-09T04:18:53;18.50;99.90
5130;DHT22;2583;50.946;6.954;2022-09-09T04:21:20;18.40;99.90
5130;DHT22;2583;50.946;6.954;2022-09-09T04:23:47;18.40;99.90
5130;DHT22;2583;50.946;6.954;2022-09-09T04:26:14;18.40;99.90
5130;DHT22;2583;50.946;6.954;2022-09-09T04:28:41;18.40;99.90
5130;DHT22;2583;50.946;6.954;2022-09-09T04:31:21;18.40;99.90
5130;DHT22;2583;50.946;6.954;2022-09-09T04:33:50;18.40;99.90
5130;DHT22;2583;50.946;6.954;2022-09-09T04:36:18;18.40;99.90
5130;DHT22;2583;50.946;6.954;2022-09-09T04:38:46;18.40;99.90
5130;DHT22;2583;50.946;6.954;2022-09-09T04:41:13;18.30;99.90
5130;DHT22;2583;50.946;6.954;2022-09-09T04:43:40;18.40;99.90
5130;DHT22;2583;50.946;6.954;2022-09-09T04:46:06;18.40;99.90
5130;DHT22;2583;50.946;6.954;2022-09-09T04:48:34;18.40;99.90
5130;DHT22;2583;50.946;6.954;2022-09-09T04:51:04;18.40;99.90
5130;DHT22;2583;50.946;6.954;2022-09-09T04:53:32;18.50;99.90
5130;DHT22;2583;50.946;6.954;2022-09-09T04:56:14;18.50;99.90
5130;DHT22;2583;50.946;6.954;2022-09-09T04:58:42;18.50;99.90
5130;DHT22;2583;50.946;6.954;2022-09-09T05:01:17;18.50;99.90
5130;DHT22;2583;50.946;6.954;2022-09-09T05:03:45;18.50;99.90
5130;DHT22;2583;50.946;6.954;2022-09-09T05:06:15;18.50;99.90
5130;DHT22;2583;50.946;6.954;2022-09-09T05:08:43;18.50;99.90
5130;DHT22;2583;50.946;6.954;2022-09-09T05:13:48;18.50;99.90
5130;DHT22;2583;50.946;6.954;2022-09-09T05:16:17;18.50;99.90
5130;DHT22;2583;50.946;6.954;2022-09-09T05:18:45;18.50;99.90
5130;DHT22;2583;50.946;6.954;2022-09-09T05:21:23;18.40;99.90
5130;DHT22;2583;50.946;6.954;2022-09-09T05:23:51;18.50;99.90
5130;DHT22;2583;50.946;6.954;2022-09-09T05:26:22;18.50;99.90
5130;DHT22;2583;50.946;6.954;2022-09-09T05:28:49;18.50;99.90
5130;DHT22;2583;50.946;6.954;2022-09-09T05:31:17;18.50;99.90
5130;DHT22;2583;50.946;6.954;2022-09-09T05:33:46;18.50;99.90
5130;DHT22;2583;50.946;6.954;2022-09-09T05:36:17;18.50;99.90
5130;DHT22;2583;50.946;6.954;2022-09-09T05:38:44;18.50;99.90
5130;DHT22;2583;50.946;6.954;2022-09-09T05:41:12;18.50;99.90
5130;DHT22;2583;50.946;6.954;2022-09-09T05:43:42;18.50;99.90
5130;DHT22;2583;50.946;6.954;2022-09-09T05:46:13;18.50;99.90
5130;DHT22;2583;50.946;6.954;2022-09-09T05:48:41;18.50;99.90
5130;DHT22;2583;50.946;6.954;2022-09-09T05:51:11;18.50;99.90
5130;DHT22;2583;50.946;6.954;2022-09-09T05:53:43;18.50;99.90
5130;DHT22;2583;50.946;6.954;2022-09-09T05:56:16;18.50;99.90
5130;DHT22;2583;50.946;6.954;2022-09-09T05:58:44;18.50;99.90
5130;DHT22;2583;50.946;6.954;2022-09-09T06:03:43;18.60;99.90
5130;DHT22;2583;50.946;6.954;2022-09-09T06:06:18;18.60;99.90
5130;DHT22;2583;50.946;6.954;2022-09-09T06:08:47;18.60;99.90
5130;DHT22;2583;50.946;6.954;2022-09-09T06:11:20;18.70;99.90
5130;DHT22;2583;50.946;6.954;2022-09-09T06:13:47;18.70;99.90
5130;DHT22;2583;50.946;6.954;2022-09-09T06:16:17;18.70;99.90
5130;DHT22;2583;50.946;6.954;2022-09-09T06:18:45;18.80;99.90
5130;DHT22;2583;50.946;6.954;2022-09-09T06:21:16;18.80;99.90
5130;DHT22;2583;50.946;6.954;2022-09-09T06:23:43;18.80;99.90
5130;DHT22;2583;50.946;6.954;2022-09-09T06:26:22;18.70;99.90
5130;DHT22;2583;50.946;6.954;2022-09-09T06:28:51;18.70;99.90
5130;DHT22;2583;50.946;6.954;2022-09-09T06:31:21;18.70;99.90
5130;DHT22;2583;50.946;6.954;2022-09-09T06:33:55;18.70;99.90
5130;DHT22;2583;50.946;6.954;2022-09-09T06:36:25;18.60;99.90
5130;DHT22;2583;50.946;6.954;2022-09-09T06:38:52;18.60;99.90
5130;DHT22;2583;50.946;6.954;2022-09-09T06:41:20;18.70;99.90
5130;DHT22;2583;50.946;6.954;2022-09-09T06:43:47;18.60;99.90
5130;DHT22;2583;50.946;6.954;2022-09-09T06:46:22;18.60;99.90
5130;DHT22;2583;50.946;6.954;2022-09-09T06:48:49;18.70;99.90
5130;DHT22;2583;50.946;6.954;2022-09-09T06:51:18;18.60;99.90
5130;DHT22;2583;50.946;6.954;2022-09-09T06:53:46;18.60;99.90
5130;DHT22;2583;50.946;6.954;2022-09-09T06:58:44;18.70;99.90
5130;DHT22;2583;50.946;6.954;2022-09-09T07:01:22;18.70;99.90
5130;DHT22;2583;50.946;6.954;2022-09-09T07:03:52;18.80;99.90
5130;DHT22;2583;50.946;6.954;2022-09-09T07:06:24;18.80;99.90
5130;DHT22;2583;50.946;6.954;2022-09-09T07:08:52;18.90;99.90
5130;DHT22;2583;50.946;6.954;2022-09-09T07:11:24;19.00;99.90
5130;DHT22;2583;50.946;6.954;2022-09-09T07:13:52;19.00;99.90
5130;DHT22;2583;50.946;6.954;2022-09-09T07:16:21;19.00;99.90
5130;DHT22;2583;50.946;6.954;2022-09-09T07:18:51;19.00;99.90
5130;DHT22;2583;50.946;6.954;2022-09-09T07:21:18;19.00;99.90
5130;DHT22;2583;50.946;6.954;2022-09-09T07:23:47;19.10;99.90
5130;DHT22;2583;50.946;6.954;2022-09-09T07:26:16;19.10;99.90
5130;DHT22;2583;50.946;6.954;2022-09-09T07:28:43;19.10;99.90
5130;DHT22;2583;50.946;6.954;2022-09-09T07:31:22;19.20;99.90
5130;DHT22;2583;50.946;6.954;2022-09-09T07:33:49;19.20;99.90
5130;DHT22;2583;50.946;6.954;2022-09-09T07:36:20;19.30;99.90
5130;DHT22;2583;50.946;6.954;2022-09-09T07:38:51;19.40;99.90
5130;DHT22;2583;50.946;6.954;2022-09-09T07:41:21;19.50;99.90
5130;DHT22;2583;50.946;6.954;2022-09-09T07:43:50;19.60;99.90
5130;DHT22;2583;50.946;6.954;2022-09-09T07:46:18;19.70;99.90
5130;DHT22;2583;50.946;6.954;2022-09-09T07:48:50;19.80;99.80
5130;DHT22;2583;50.946;6.954;2022-09-09T07:51:23;19.90;98.90
5130;DHT22;2583;50.946;6.954;2022-09-09T07:53:59;20.00;96.20
5130;DHT22;2583;50.946;6.954;2022-09-09T07:56:27;20.10;94.70
5130;DHT22;2583;50.946;6.954;2022-09-09T07:58:55;20.20;93.70
5130;DHT22;2583;50.946;6.954;2022-09-09T08:01:28;20.20;86.90
5130;DHT22;2583;50.946;6.954;2022-09-09T08:04:07;20.30;88.50
5130;DHT22;2583;50.946;6.954;2022-09-09T08:06:39;20.40;86.00
5130;DHT22;2583;50.946;6.954;2022-09-09T08:09:07;20.30;82.10
5130;DHT22;2583;50.946;6.954;2022-09-09T08:11:34;20.40;81.80
5130;DHT22;2583;50.946;6.954;2022-09-09T08:14:06;20.40;80.50
5130;DHT22;2583;50.946;6.954;2022-09-09T08:16:39;20.40;81.80
5130;DHT22;2583;50.946;6.954;2022-09-09T08:19:07;20.30;80.90
5130;DHT22;2583;50.946;6.954;2022-09-09T08:21:36;20.30;81.90
5130;DHT22;2583;50.946;6.954;2022-09-09T08:24:04;20.30;81.10
5130;DHT22;2583;50.946;6.954;2022-09-09T08:26:36;20.30;78.90
5130;DHT22;2583;50.946;6.954;2022-09-09T08:29:05;20.40;79.00
5130;DHT22;2583;50.946;6.954;2022-09-09T08:31:40;20.40;77.00
5130;DHT22;2583;50.946;6.954;2022-09-09T08:34:07;20.50;74.50
5130;DHT22;2583;50.946;6.954;2022-09-09T08:36:37;20.60;73.20
5130;DHT22;2583;50.946;6.954;2022-09-09T08:39:06;20.70;70.10
5130;DHT22;2583;50.946;6.954;2022-09-09T08:52:57;21.10;54.80
5130;DHT22;2583;50.946;6.954;2022-09-09T08:55:56;21.20;54.90
5130;DHT22;2583;50.946;6.954;2022-09-09T08:58:30;21.10;52.90
5130;DHT22;2583;50.946;6.954;2022-09-09T09:06:35;21.20;52.30
5130;DHT22;2583;50.946;6.954;2022-09-09T09:11:56;21.30;52.30
5130;DHT22;2583;50.946;6.954;2022-09-09T09:14:33;21.40;50.90
5130;DHT22;2583;50.946;6.954;2022-09-09T09:17:06;21.40;51.20
5130;DHT22;2583;50.946;6.954;2022-09-09T09:19:39;21.50;51.30
5130;DHT22;2583;50.946;6.954;2022-09-09T09:22:21;21.60;51.70
5130;DHT22;2583;50.946;6.954;2022-09-09T09:27:32;21.80;52.10
5130;DHT22;2583;50.946;6.954;2022-09-09T09:30:22;21.60;50.70
5130;DHT22;2583;50.946;6.954;2022-09-09T09:35:48;21.30;51.90
5130;DHT22;2583;50.946;6.954;2022-09-09T09:38:20;21.20;52.30
5130;DHT22;2583;50.946;6.954;2022-09-09T09:41:08;21.10;53.20
5130;DHT22;2583;50.946;6.954;2022-09-09T09:43:37;21.20;53.30
5130;DHT22;2583;50.946;6.954;2022-09-09T09:46:20;21.30;53.10
5130;DHT22;2583;50.946;6.954;2022-09-09T09:49:09;21.20;53.20
5130;DHT22;2583;50.946;6.954;2022-09-09T09:51:36;21.20;54.00
5130;DHT22;2583;50.946;6.954;2022-09-09T09:54:14;21.20;54.10
5130;DHT22;2583;50.946;6.954;2022-09-09T09:56:43;21.30;54.20
5130;DHT22;2583;50.946;6.954;2022-09-09T09:59:34;21.40;54.70
5130;DHT22;2583;50.946;6.954;2022-09-09T10:04:44;21.60;54.50
5130;DHT22;2583;50.946;6.954;2022-09-09T10:07:19;21.70;54.10
5130;DHT22;2583;50.946;6.954;2022-09-09T10:09:54;21.90;53.50
5130;DHT22;2583;50.946;6.954;2022-09-09T10:13:04;21.90;52.90
5130;DHT22;2583;50.946;6.954;2022-09-09T10:15:48;21.80;51.30
5130;DHT22;2583;50.946;6.954;2022-09-09T10:21:10;21.60;50.70
5130;DHT22;2583;50.946;6.954;2022-09-09T10:23:51;21.50;50.90
5130;DHT22;2583;50.946;6.954;2022-09-09T10:31:55;21.50;50.60
5130;DHT22;2583;50.946;6.954;2022-09-09T10:40:28;21.60;50.50
5130;DHT22;2583;50.946;6.954;2022-09-09T10:43:38;21.80;50.60
5130;DHT22;2583;50.946;6.954;2022-09-09T10:52:32;22.30;48.40
5130;DHT22;2583;50.946;6.954;2022-09-09T10:55:11;22.30;47.70
5130;DHT22;2583;50.946;6.954;2022-09-09T10:57:44;22.30;47.20
5130;DHT22;2583;50.946;6.954;2022-09-09T11:00:24;22.50;46.50
5130;DHT22;2583;50.946;6.954;2022-09-09T11:03:00;22.60;45.80
5130;DHT22;2583;50.946;6.954;2022-09-09T11:05:46;23.00;44.90
5130;DHT22;2583;50.946;6.954;2022-09-09T11:08:25;23.00;43.80
5130;DHT22;2583;50.946;6.954;2022-09-09T11:11:08;23.00;43.70
5130;DHT22;2583;50.946;6.954;2022-09-09T11:16:49;23.00;44.00
5130;DHT22;2583;50.946;6.954;2022-09-09T11:21:49;23.00;43.50
5130;DHT22;2583;50.946;6.954;2022-09-09T11:24:39;23.20;43.50
5130;DHT22;2583;50.946;6.954;2022-09-09T11:27:13;23.00;42.60
5130;DHT22;2583;50.946;6.954;2022-09-09T11:30:10;23.00;43.00
5130;DHT22;2583;50.946;6.954;2022-09-09T11:35:39;22.60;42.50
5130;DHT22;2583;50.946;6.954;2022-09-09T11:41:09;22.70;42.10
5130;DHT22;2583;50.946;6.954;2022-09-09T11:43:47;22.70;41.60
5130;DHT22;2583;50.946;6.954;2022-09-09T11:46:17;22.70;42.70
5130;DHT22;2583;50.946;6.954;2022-09-09T11:48:57;22.60;41.90
5130;DHT22;2583;50.946;6.954;2022-09-09T11:51:25;22.60;41.50
5130;DHT22;2583;50.946;6.954;2022-09-09T11:54:01;22.70;41.40
5130;DHT22;2583;50.946;6.954;2022-09-09T11:56:43;22.60;41.10
5130;DHT22;2583;50.946;6.954;2022-09-09T11:59:32;22.60;41.30
5130;DHT22;2583;50.946;6.954;2022-09-09T12:02:01;22.50;40.60
5130;DHT22;2583;50.946;6.954;2022-09-09T12:04:33;22.50;40.90
5130;DHT22;2583;50.946;6.954;2022-09-09T12:07:04;22.40;41.20
5130;DHT22;2583;50.946;6.954;2022-09-09T12:09:43;22.50;41.50
5130;DHT22;2583;50.946;6.954;2022-09-09T12:19:41;22.00;41.90
5130;DHT22;2583;50.946;6.954;2022-09-09T12:23:22;22.10;42.30
5130;DHT22;2583;50.946;6.954;2022-09-09T12:25:29;22.10;41.80
5130;DHT22;2583;50.946;6.954;2022-09-09T12:33:35;22.40;41.00
5130;DHT22;2583;50.946;6.954;2022-09-09T12:36:04;22.50;40.80
5130;DHT22;2583;50.946;6.954;2022-09-09T12:38:36;22.50;41.20
5130;DHT22;2583;50.946;6.954;2022-09-09T12:41:03;22.40;41.20
5130;DHT22;2583;50.946;6.954;2022-09-09T12:43:30;22.50;41.50
5130;DHT22;2583;50.946;6.954;2022-09-09T12:46:02;22.40;41.80
5130;DHT22;2583;50.946;6.954;2022-09-09T12:48:35;22.30;42.00
5130;DHT22;2583;50.946;6.954;2022-09-09T12:51:05;22.20;42.50
5130;DHT22;2583;50.946;6.954;2022-09-09T12:53:35;22.20;43.50
5130;DHT22;2583;50.946;6.954;2022-09-09T12:56:08;22.20;43.80
5130;DHT22;2583;50.946;6.954;2022-09-09T12:58:37;22.40;43.20
5130;DHT22;2583;50.946;6.954;2022-09-09T13:01:06;22.70;43.90
5130;DHT22;2583;50.946;6.954;2022-09-09T13:03:41;23.10;42.80
5130;DHT22;2583;50.946;6.954;2022-09-09T13:06:18;23.40;41.80
5130;DHT22;2583;50.946;6.954;2022-09-09T13:08:46;23.50;40.70
5130;DHT22;2583;50.946;6.954;2022-09-09T13:11:17;23.30;40.90
5130;DHT22;2583;50.946;6.954;2022-09-09T13:13:51;23.10;40.70
5130;DHT22;2583;50.946;6.954;2022-09-09T13:16:29;23.00;41.00
5130;DHT22;2583;50.946;6.954;2022-09-09T13:19:00;22.90;41.20
5130;DHT22;2583;50.946;6.954;2022-09-09T13:21:35;22.70;41.60
5130;DHT22;2583;50.946;6.954;2022-09-09T13:24:06;22.60;42.20
5130;DHT22;2583;50.946;6.954;2022-09-09T13:26:34;22.60;43.20
5130;DHT22;2583;50.946;6.954;2022-09-09T13:29:16;22.70;43.00
5130;DHT22;2583;50.946;6.954;2022-09-09T13:31:44;22.70;42.60
5130;DHT22;2583;50.946;6.954;2022-09-09T13:34:30;22.70;42.60
5130;DHT22;2583;50.946;6.954;2022-09-09T13:37:14;22.80;43.40
5130;DHT22;2583;50.946;6.954;2022-09-09T13:39:51;23.20;42.30
5130;DHT22;2583;50.946;6.954;2022-09-09T13:42:26;23.40;42.00
5130;DHT22;2583;50.946;6.954;2022-09-09T13:44:53;23.20;42.00
5130;DHT22;2583;50.946;6.954;2022-09-09T13:47:33;23.10;42.70
5130;DHT22;2583;50.946;6.954;2022-09-09T13:50:27;23.30;43.00
5130;DHT22;2583;50.946;6.954;2022-09-09T13:52:56;24.50;41.40
5130;DHT22;2583;50.946;6.954;2022-09-09T13:55:28;25.70;37.90
5130;DHT22;2583;50.946;6.954;2022-09-09T13:58:00;26.50;35.30
5130;DHT22;2583;50.946;6.954;2022-09-09T14:00:33;27.40;32.40
5130;DHT22;2583;50.946;6.954;2022-09-09T14:03:00;27.60;30.60
5130;DHT22;2583;50.946;6.954;2022-09-09T14:05:32;27.40;30.10
5130;DHT22;2583;50.946;6.954;2022-09-09T14:08:00;26.70;31.30
5130;DHT22;2583;50.946;6.954;2022-09-09T14:10:30;25.80;33.10
5130;DHT22;2583;50.946;6.954;2022-09-09T14:12:56;25.20;34.90
5130;DHT22;2583;50.946;6.954;2022-09-09T14:15:23;24.60;36.10
5130;DHT22;2583;50.946;6.954;2022-09-09T14:17:50;24.10;37.80
5130;DHT22;2583;50.946;6.954;2022-09-09T14:20:18;23.70;39.70
5130;DHT22;2583;50.946;6.954;2022-09-09T14:22:45;23.50;41.10
5130;DHT22;2583;50.946;6.954;2022-09-09T14:25:12;23.00;41.60
5130;DHT22;2583;50.946;6.954;2022-09-09T14:27:40;22.80;42.40
5130;DHT22;2583;50.946;6.954;2022-09-09T14:30:07;22.60;42.90
5130;DHT22;2583;50.946;6.954;2022-09-09T14:32:34;22.40;44.10
5130;DHT22;2583;50.946;6.954;2022-09-09T14:35:01;22.20;45.90
5130;DHT22;2583;50.946;6.954;2022-09-09T14:37:28;22.00;69.60
5130;DHT22;2583;50.946;6.954;2022-09-09T14:39:57;21.50;96.50
5130;DHT22;2583;50.946;6.954;2022-09-09T14:42:24;21.00;99.90
5130;DHT22;2583;50.946;6.954;2022-09-09T14:44:54;20.30;99.90
5130;DHT22;2583;50.946;6.954;2022-09-09T14:47:21;19.80;99.90
5130;DHT22;2583;50.946;6.954;2022-09-09T14:49:48;19.30;99.90
5130;DHT22;2583;50.946;6.954;2022-09-09T14:52:16;19.00;99.90
5130;DHT22;2583;50.946;6.954;2022-09-09T14:54:43;19.00;99.90
5130;DHT22;2583;50.946;6.954;2022-09-09T14:57:09;18.90;99.90
5130;DHT22;2583;50.946;6.954;2022-09-09T14:59:36;19.00;99.90
5130;DHT22;2583;50.946;6.954;2022-09-09T15:02:03;19.00;99.90
5130;DHT22;2583;50.946;6.954;2022-09-09T15:04:31;19.00;99.90
5130;DHT22;2583;50.946;6.954;2022-09-09T15:06:58;19.00;99.90
5130;DHT22;2583;50.946;6.954;2022-09-09T15:09:25;19.10;99.90
5130;DHT22;2583;50.946;6.954;2022-09-09T15:11:52;19.20;99.90
5130;DHT22;2583;50.946;6.954;2022-09-09T15:14:19;19.30;99.90
5130;DHT22;2583;50.946;6.954;2022-09-09T15:16:51;19.40;99.90
5130;DHT22;2583;50.946;6.954;2022-09-09T15:19:17;19.50;99.90
5130;DHT22;2583;50.946;6.954;2022-09-09T15:21:44;19.50;99.90
5130;DHT22;2583;50.946;6.954;2022-09-09T15:24:11;19.50;99.90
5130;DHT22;2583;50.946;6.954;2022-09-09T15:26:40;19.60;99.90
5130;DHT22;2583;50.946;6.954;2022-09-09T15:29:07;19.60;99.90
5130;DHT22;2583;50.946;6.954;2022-09-09T15:31:34;19.70;99.90
5130;DHT22;2583;50.946;6.954;2022-09-09T15:34:03;19.60;99.90
5130;DHT22;2583;50.946;6.954;2022-09-09T15:36:44;19.60;99.90
5130;DHT22;2583;50.946;6.954;2022-09-09T15:39:15;19.60;99.90
5130;DHT22;2583;50.946;6.954;2022-09-09T15:41:43;19.60;99.90
5130;DHT22;2583;50.946;6.954;2022-09-09T15:44:10;19.60;99.90
5130;DHT22;2583;50.946;6.954;2022-09-09T15:46:40;19.60;99.90
5130;DHT22;2583;50.946;6.954;2022-09-09T15:49:13;19.80;99.90
5130;DHT22;2583;50.946;6.954;2022-09-09T15:51:45;19.80;99.90
5130;DHT22;2583;50.946;6.954;2022-09-09T15:54:16;19.80;99.90
5130;DHT22;2583;50.946;6.954;2022-09-09T15:56:45;19.80;99.90
5130;DHT22;2583;50.946;6.954;2022-09-09T15:59:14;19.90;99.90
5130;DHT22;2583;50.946;6.954;2022-09-09T16:01:41;19.70;99.90
5130;DHT22;2583;50.946;6.954;2022-09-09T16:04:09;19.60;99.90
5130;DHT22;2583;50.946;6.954;2022-09-09T16:06:36;19.60;99.90
5130;DHT22;2583;50.946;6.954;2022-09-09T16:09:05;19.60;99.90
5130;DHT22;2583;50.946;6.954;2022-09-09T16:11:35;19.50;99.90
5130;DHT22;2583;50.946;6.954;2022-09-09T16:14:02;19.50;99.90
5130;DHT22;2583;50.946;6.954;2022-09-09T16:16:30;19.40;99.90
5130;DHT22;2583;50.946;6.954;2022-09-09T16:18:59;19.30;99.90
5130;DHT22;2583;50.946;6.954;2022-09-09T16:21:32;19.30;99.90
5130;DHT22;2583;50.946;6.954;2022-09-09T16:24:00;19.20;99.90
5130;DHT22;2583;50.946;6.954;2022-09-09T16:26:30;19.20;99.90
5130;DHT22;2583;50.946;6.954;2022-09-09T16:28:58;19.20;99.90
5130;DHT22;2583;50.946;6.954;2022-09-09T16:31:27;19.20;99.90
5130;DHT22;2583;50.946;6.954;2022-09-09T16:33:54;19.30;99.90
5130;DHT22;2583;50.946;6.954;2022-09-09T16:36:25;19.30;99.90
5130;DHT22;2583;50.946;6.954;2022-09-09T16:38:54;19.40;99.90
5130;DHT22;2583;50.946;6.954;2022-09-09T16:41:22;19.40;99.90
5130;DHT22;2583;50.946;6.954;2022-09-09T16:43:56;19.40;99.90
5130;DHT22;2583;50.946;6.954;2022-09-09T16:46:23;19.40;99.90
5130;DHT22;2583;50.946;6.954;2022-09-09T16:48:51;19.40;99.90
5130;DHT22;2583;50.946;6.954;2022-09-09T16:51:20;19.40;99.90
5130;DHT22;2583;50.946;6.954;2022-09-09T16:53:48;19.40;99.90
5130;DHT22;2583;50.946;6.954;2022-09-09T16:56:17;19.50;99.90
5130;DHT22;2583;50.946;6.954;2022-09-09T16:58:50;19.50;99.90
5130;DHT22;2583;50.946;6.954;2022-09-09T17:01:17;19.40;99.90
5130;DHT22;2583;50.946;6.954;2022-09-09T17:03:44;19.40;99.90
5130;DHT22;2583;50.946;6.954;2022-09-09T17:06:12;19.50;99.90
5130;DHT22;2583;50.946;6.954;2022-09-09T17:08:40;19.40;99.90
5130;DHT22;2583;50.946;6.954;2022-09-09T17:11:17;19.40;99.90
5130;DHT22;2583;50.946;6.954;2022-09-09T17:13:46;19.40;99.90
5130;DHT22;2583;50.946;6.954;2022-09-09T17:16:14;19.30;99.90
5130;DHT22;2583;50.946;6.954;2022-09-09T17:18:41;19.30;99.90
5130;DHT22;2583;50.946;6.954;2022-09-09T17:21:13;19.20;99.90
5130;DHT22;2583;50.946;6.954;2022-09-09T17:23:41;19.20;99.90
5130;DHT22;2583;50.946;6.954;2022-09-09T17:26:10;19.10;99.90
5130;DHT22;2583;50.946;6.954;2022-09-09T17:28:38;19.10;99.90
5130;DHT22;2583;50.946;6.954;2022-09-09T17:31:10;19.00;99.90
5130;DHT22;2583;50.946;6.954;2022-09-09T17:33:39;19.00;99.90
5130;DHT22;2583;50.946;6.954;2022-09-09T17:36:21;19.00;99.90
5130;DHT22;2583;50.946;6.954;2022-09-09T17:38:49;18.90;99.90
5130;DHT22;2583;50.946;6.954;2022-09-09T17:41:21;18.90;99.90
5130;DHT22;2583;50.946;6.954;2022-09-09T17:43:49;19.00;99.90
5130;DHT22;2583;50.946;6.954;2022-09-09T17:46:27;19.00;99.90
5130;DHT22;2583;50.946;6.954;2022-09-09T17:48:58;19.00;99.90
5130;DHT22;2583;50.946;6.954;2022-09-09T17:51:27;18.90;99.90
5130;DHT22;2583;50.946;6.954;2022-09-09T17:53:58;18.90;99.90
5130;DHT22;2583;50.946;6.954;2022-09-09T17:56:27;18.90;99.90
5130;DHT22;2583;50.946;6.954;2022-09-09T17:58:55;18.80;99.90
5130;DHT22;2583;50.946;6.954;2022-09-09T18:01:24;18.80;99.90
5130;DHT22;2583;50.946;6.954;2022-09-09T18:03:54;18.80;99.90
5130;DHT22;2583;50.946;6.954;2022-09-09T18:06:26;18.70;99.90
5130;DHT22;2583;50.946;6.954;2022-09-09T18:09:03;18.70;99.90
5130;DHT22;2583;50.946;6.954;2022-09-09T18:11:32;18.70;99.90
5130;DHT22;2583;50.946;6.954;2022-09-09T18:14:03;18.70;99.90
5130;DHT22;2583;50.946;6.954;2022-09-09T18:16:32;18.70;99.90
5130;DHT22;2583;50.946;6.954;2022-09-09T18:19:03;18.70;99.90
5130;DHT22;2583;50.946;6.954;2022-09-09T18:21:32;18.70;99.90
5130;DHT22;2583;50.946;6.954;2022-09-09T18:24:01;18.70;99.90
5130;DHT22;2583;50.946;6.954;2022-09-09T18:26:29;18.70;99.90
5130;DHT22;2583;50.946;6.954;2022-09-09T18:28:57;18.70;99.90
5130;DHT22;2583;50.946;6.954;2022-09-09T18:31:26;18.70;99.90
5130;DHT22;2583;50.946;6.954;2022-09-09T18:33:55;18.70;99.90
5130;DHT22;2583;50.946;6.954;2022-09-09T18:36:25;18.60;99.90
5130;DHT22;2583;50.946;6.954;2022-09-09T18:38:54;18.60;99.90